sensor_id;sensor_type;location;lat;lon;timestamp;temperature;humidity
44517;DHT22;30223;17.182;-96.766;2023-02-03T00:01:52;25.50;52.10
44517;DHT22;30223;17.182;-96.766;2023-02-03T00:04:19;25.50;52.20
44517;DHT22;30223;17.182;-96.766;2023-02-03T00:06:45;25.60;54.20
44517;DHT22;30223;17.182;-96.766;2023-02-03T00:09:13;25.70;53.70
44517;DHT22;30223;17.182;-96.766;2023-02-03T00:11:40;25.80;53.90
44517;DHT22;30223;17.182;-96.766;2023-02-03T00:14:06;25.90;55.40
44517;DHT22;30223;17.182;-96.766;2023-02-03T00:16:33;26.00;53.60
44517;DHT22;30223;17.182;-96.766;2023-02-03T00:19:00;26.00;53.80
44517;DHT22;30223;17.182;-96.766;2023-02-03T00:21:27;26.10;54.90
44517;DHT22;30223;17.182;-96.766;2023-02-03T00:23:53;26.20;55.20
44517;DHT22;30223;17.182;-96.766;2023-02-03T00:26:20;26.20;52.70
44517;DHT22;30223;17.182;-96.766;2023-02-03T00:28:47;26.30;52.10
44517;DHT22;30223;17.182;-96.766;2023-02-03T00:31:18;26.30;51.80
44517;DHT22;30223;17.182;-96.766;2023-02-03T00:33:46;26.40;51.60
44517;DHT22;30223;17.182;-96.766;2023-02-03T00:36:13;26.40;51.30
44517;DHT22;30223;17.182;-96.766;2023-02-03T00:38:40;26.40;51.60
44517;DHT22;30223;17.182;-96.766;2023-02-03T00:41:07;26.40;51.20
44517;DHT22;30223;17.182;-96.766;2023-02-03T00:43:33;26.40;51.30
44517;DHT22;30223;17.182;-96.766;2023-02-03T00:46:00;26.40;50.80
44517;DHT22;30223;17.182;-96.766;2023-02-03T00:48:27;26.50;51.70
44517;DHT22;30223;17.182;-96.766;2023-02-03T00:50:53;26.50;50.80
44517;DHT22;30223;17.182;-96.766;2023-02-03T00:53:20;26.50;51.00
44517;DHT22;30223;17.182;-96.766;2023-02-03T00:55:46;26.50;51.60
44517;DHT22;30223;17.182;-96.766;2023-02-03T00:58:13;26.50;51.10
44517;DHT22;30223;17.182;-96.766;2023-02-03T01:00:40;26.50;50.90
44517;DHT22;30223;17.182;-96.766;2023-02-03T01:03:07;26.50;50.50
44517;DHT22;30223;17.182;-96.766;2023-02-03T01:05:35;26.50;50.20
44517;DHT22;30223;17.182;-96.766;2023-02-03T01:08:03;26.50;50.30
44517;DHT22;30223;17.182;-96.766;2023-02-03T01:10:29;26.60;50.20
44517;DHT22;30223;17.182;-96.766;2023-02-03T01:12:56;26.70;50.00
44517;DHT22;30223;17.182;-96.766;2023-02-03T01:15:23;26.80;50.20
44517;DHT22;30223;17.182;-96.766;2023-02-03T01:17:50;26.80;50.20
44517;DHT22;30223;17.182;-96.766;2023-02-03T01:20:16;26.80;48.90
44517;DHT22;30223;17.182;-96.766;2023-02-03T01:22:43;26.80;48.70
44517;DHT22;30223;17.182;-96.766;2023-02-03T01:25:10;26.80;48.80
44517;DHT22;30223;17.182;-96.766;2023-02-03T01:27:36;26.70;48.60
44517;DHT22;30223;17.182;-96.766;2023-02-03T01:30:03;26.80;48.60
44517;DHT22;30223;17.182;-96.766;2023-02-03T01:32:30;26.70;48.50
44517;DHT22;30223;17.182;-96.766;2023-02-03T01:34:57;26.70;48.40
44517;DHT22;30223;17.182;-96.766;2023-02-03T01:37:23;26.60;48.70
44517;DHT22;30223;17.182;-96.766;2023-02-03T01:39:50;26.60;49.00
44517;DHT22;30223;17.182;-96.766;2023-02-03T01:42:17;26.60;48.80
44517;DHT22;30223;17.182;-96.766;2023-02-03T01:44:45;26.60;48.90
44517;DHT22;30223;17.182;-96.766;2023-02-03T01:47:35;26.60;49.60
44517;DHT22;30223;17.182;-96.766;2023-02-03T01:50:35;26.50;49.20
44517;DHT22;30223;17.182;-96.766;2023-02-03T01:53:10;26.50;48.90
44517;DHT22;30223;17.182;-96.766;2023-02-03T01:55:43;26.50;49.10
44517;DHT22;30223;17.182;-96.766;2023-02-03T01:58:22;26.40;49.00
44517;DHT22;30223;17.182;-96.766;2023-02-03T02:00:51;26.40;49.20
44517;DHT22;30223;17.182;-96.766;2023-02-03T02:03:49;26.40;49.00
44517;DHT22;30223;17.182;-96.766;2023-02-03T02:06:22;26.30;49.20
44517;DHT22;30223;17.182;-96.766;2023-02-03T02:08:51;26.30;49.40
44517;DHT22;30223;17.182;-96.766;2023-02-03T02:11:19;26.30;48.90
44517;DHT22;30223;17.182;-96.766;2023-02-03T02:13:50;26.30;49.20
44517;DHT22;30223;17.182;-96.766;2023-02-03T02:32:47;26.00;48.20
44517;DHT22;30223;17.182;-96.766;2023-02-03T02:43:30;25.80;48.30
44517;DHT22;30223;17.182;-96.766;2023-02-03T02:46:02;25.70;48.20
44517;DHT22;30223;17.182;-96.766;2023-02-03T02:48:56;25.70;48.30
44517;DHT22;30223;17.182;-96.766;2023-02-03T02:51:36;25.70;48.40
44517;DHT22;30223;17.182;-96.766;2023-02-03T02:54:07;25.60;48.40
44517;DHT22;30223;17.182;-96.766;2023-02-03T02:56:38;25.60;48.40
44517;DHT22;30223;17.182;-96.766;2023-02-03T02:59:06;25.60;48.40
44517;DHT22;30223;17.182;-96.766;2023-02-03T03:01:34;25.50;48.40
44517;DHT22;30223;17.182;-96.766;2023-02-03T03:04:04;25.50;48.40
44517;DHT22;30223;17.182;-96.766;2023-02-03T03:06:41;25.50;48.50
44517;DHT22;30223;17.182;-96.766;2023-02-03T03:09:20;25.50;48.40
44517;DHT22;30223;17.182;-96.766;2023-02-03T03:12:00;25.40;48.40
44517;DHT22;30223;17.182;-96.766;2023-02-03T03:14:30;25.40;48.40
44517;DHT22;30223;17.182;-96.766;2023-02-03T03:17:05;25.40;48.50
44517;DHT22;30223;17.182;-96.766;2023-02-03T03:19:35;25.40;44.70
44517;DHT22;30223;17.182;-96.766;2023-02-03T03:22:05;25.30;43.40
44517;DHT22;30223;17.182;-96.766;2023-02-03T03:24:40;25.20;44.20
44517;DHT22;30223;17.182;-96.766;2023-02-03T03:27:21;25.20;43.70
44517;DHT22;30223;17.182;-96.766;2023-02-03T03:32:21;25.00;43.90
44517;DHT22;30223;17.182;-96.766;2023-02-03T03:34:49;25.00;43.40
44517;DHT22;30223;17.182;-96.766;2023-02-03T03:40:26;24.90;43.50
44517;DHT22;30223;17.182;-96.766;2023-02-03T03:42:46;24.90;43.20
44517;DHT22;30223;17.182;-96.766;2023-02-03T03:48:07;24.80;42.90
44517;DHT22;30223;17.182;-96.766;2023-02-03T03:50:40;24.80;42.70
44517;DHT22;30223;17.182;-96.766;2023-02-03T03:53:09;24.70;42.70
44517;DHT22;30223;17.182;-96.766;2023-02-03T03:55:36;24.70;42.70
44517;DHT22;30223;17.182;-96.766;2023-02-03T03:58:10;24.60;42.80
44517;DHT22;30223;17.182;-96.766;2023-02-03T04:00:39;24.60;42.70
44517;DHT22;30223;17.182;-96.766;2023-02-03T04:03:12;24.60;43.00
44517;DHT22;30223;17.182;-96.766;2023-02-03T04:05:40;24.60;42.50
44517;DHT22;30223;17.182;-96.766;2023-02-03T04:08:07;24.50;42.50
44517;DHT22;30223;17.182;-96.766;2023-02-03T04:10:38;24.50;42.70
44517;DHT22;30223;17.182;-96.766;2023-02-03T04:13:14;24.50;42.60
44517;DHT22;30223;17.182;-96.766;2023-02-03T04:15:44;24.50;42.50
44517;DHT22;30223;17.182;-96.766;2023-02-03T04:18:15;24.40;42.30
44517;DHT22;30223;17.182;-96.766;2023-02-03T04:20:43;24.50;42.70
44517;DHT22;30223;17.182;-96.766;2023-02-03T04:23:10;24.40;42.50
44517;DHT22;30223;17.182;-96.766;2023-02-03T04:25:39;24.50;42.60
44517;DHT22;30223;17.182;-96.766;2023-02-03T04:28:07;24.40;42.60
44517;DHT22;30223;17.182;-96.766;2023-02-03T04:30:34;24.40;42.50
44517;DHT22;30223;17.182;-96.766;2023-02-03T04:33:01;24.40;42.60
44517;DHT22;30223;17.182;-96.766;2023-02-03T04:35:47;24.50;43.30
44517;DHT22;30223;17.182;-96.766;2023-02-03T04:38:14;24.50;43.20
44517;DHT22;30223;17.182;-96.766;2023-02-03T04:40:40;24.40;43.20
44517;DHT22;30223;17.182;-96.766;2023-02-03T04:43:07;24.40;43.30
44517;DHT22;30223;17.182;-96.766;2023-02-03T04:45:34;24.40;43.20
44517;DHT22;30223;17.182;-96.766;2023-02-03T04:48:02;24.30;43.00
44517;DHT22;30223;17.182;-96.766;2023-02-03T04:50:48;24.30;43.10
44517;DHT22;30223;17.182;-96.766;2023-02-03T04:53:15;24.20;43.20
44517;DHT22;30223;17.182;-96.766;2023-02-03T04:55:45;24.10;43.10
44517;DHT22;30223;17.182;-96.766;2023-02-03T04:58:11;24.10;43.10
44517;DHT22;30223;17.182;-96.766;2023-02-03T05:00:38;24.00;43.20
44517;DHT22;30223;17.182;-96.766;2023-02-03T05:03:04;24.00;43.30
44517;DHT22;30223;17.182;-96.766;2023-02-03T05:05:31;23.90;43.30
44517;DHT22;30223;17.182;-96.766;2023-02-03T05:07:58;23.90;43.40
44517;DHT22;30223;17.182;-96.766;2023-02-03T05:10:24;23.80;43.50
44517;DHT22;30223;17.182;-96.766;2023-02-03T05:12:51;23.80;43.90
44517;DHT22;30223;17.182;-96.766;2023-02-03T05:15:18;23.80;44.00
44517;DHT22;30223;17.182;-96.766;2023-02-03T05:17:44;23.70;44.00
44517;DHT22;30223;17.182;-96.766;2023-02-03T05:20:11;23.70;44.20
44517;DHT22;30223;17.182;-96.766;2023-02-03T05:22:38;23.70;44.20
44517;DHT22;30223;17.182;-96.766;2023-02-03T05:25:05;23.70;44.40
44517;DHT22;30223;17.182;-96.766;2023-02-03T05:27:31;23.60;44.40
44517;DHT22;30223;17.182;-96.766;2023-02-03T05:29:58;23.70;44.60
44517;DHT22;30223;17.182;-96.766;2023-02-03T05:32:26;23.70;44.70
44517;DHT22;30223;17.182;-96.766;2023-02-03T05:35:13;23.70;44.70
44517;DHT22;30223;17.182;-96.766;2023-02-03T05:37:39;23.60;44.80
44517;DHT22;30223;17.182;-96.766;2023-02-03T05:40:06;23.60;44.90
44517;DHT22;30223;17.182;-96.766;2023-02-03T05:42:51;23.60;45.00
44517;DHT22;30223;17.182;-96.766;2023-02-03T05:45:17;23.60;45.00
44517;DHT22;30223;17.182;-96.766;2023-02-03T05:47:44;23.60;45.00
44517;DHT22;30223;17.182;-96.766;2023-02-03T05:50:11;23.60;45.20
44517;DHT22;30223;17.182;-96.766;2023-02-03T05:52:37;23.50;45.20
44517;DHT22;30223;17.182;-96.766;2023-02-03T05:55:04;23.50;45.30
44517;DHT22;30223;17.182;-96.766;2023-02-03T05:57:31;23.50;45.30
44517;DHT22;30223;17.182;-96.766;2023-02-03T05:59:58;23.50;45.30
44517;DHT22;30223;17.182;-96.766;2023-02-03T06:02:24;23.50;45.30
44517;DHT22;30223;17.182;-96.766;2023-02-03T06:04:51;23.50;45.50
44517;DHT22;30223;17.182;-96.766;2023-02-03T06:07:17;23.50;45.50
44517;DHT22;30223;17.182;-96.766;2023-02-03T06:09:44;23.50;45.60
44517;DHT22;30223;17.182;-96.766;2023-02-03T06:12:11;23.40;45.60
44517;DHT22;30223;17.182;-96.766;2023-02-03T06:14:49;23.40;45.60
44517;DHT22;30223;17.182;-96.766;2023-02-03T06:17:16;23.40;45.70
44517;DHT22;30223;17.182;-96.766;2023-02-03T06:19:42;23.40;45.70
44517;DHT22;30223;17.182;-96.766;2023-02-03T06:22:09;23.40;45.70
44517;DHT22;30223;17.182;-96.766;2023-02-03T06:24:36;23.40;45.80
44517;DHT22;30223;17.182;-96.766;2023-02-03T06:27:02;23.40;45.80
44517;DHT22;30223;17.182;-96.766;2023-02-03T06:29:29;23.40;45.90
44517;DHT22;30223;17.182;-96.766;2023-02-03T06:31:55;23.30;45.90
44517;DHT22;30223;17.182;-96.766;2023-02-03T06:34:22;23.30;45.90
44517;DHT22;30223;17.182;-96.766;2023-02-03T06:36:49;23.30;45.90
44517;DHT22;30223;17.182;-96.766;2023-02-03T06:39:15;23.30;46.00
44517;DHT22;30223;17.182;-96.766;2023-02-03T06:41:42;23.30;46.00
44517;DHT22;30223;17.182;-96.766;2023-02-03T06:44:08;23.30;46.00
44517;DHT22;30223;17.182;-96.766;2023-02-03T06:46:35;23.30;46.10
44517;DHT22;30223;17.182;-96.766;2023-02-03T06:49:02;23.30;46.10
44517;DHT22;30223;17.182;-96.766;2023-02-03T06:51:28;23.30;46.20
44517;DHT22;30223;17.182;-96.766;2023-02-03T06:53:55;23.20;46.10
44517;DHT22;30223;17.182;-96.766;2023-02-03T06:56:23;23.20;46.20
44517;DHT22;30223;17.182;-96.766;2023-02-03T06:58:50;23.20;46.20
44517;DHT22;30223;17.182;-96.766;2023-02-03T07:01:17;23.20;46.20
44517;DHT22;30223;17.182;-96.766;2023-02-03T07:03:43;23.20;46.30
44517;DHT22;30223;17.182;-96.766;2023-02-03T07:06:10;23.20;46.30
44517;DHT22;30223;17.182;-96.766;2023-02-03T07:08:36;23.20;46.30
44517;DHT22;30223;17.182;-96.766;2023-02-03T07:11:03;23.10;46.30
44517;DHT22;30223;17.182;-96.766;2023-02-03T07:13:30;23.10;46.30
44517;DHT22;30223;17.182;-96.766;2023-02-03T07:15:57;23.10;47.00
44517;DHT22;30223;17.182;-96.766;2023-02-03T07:18:23;23.10;46.40
44517;DHT22;30223;17.182;-96.766;2023-02-03T07:20:51;23.10;46.50
44517;DHT22;30223;17.182;-96.766;2023-02-03T07:23:19;23.10;46.50
44517;DHT22;30223;17.182;-96.766;2023-02-03T07:25:45;23.10;46.50
44517;DHT22;30223;17.182;-96.766;2023-02-03T07:28:12;23.10;46.50
44517;DHT22;30223;17.182;-96.766;2023-02-03T07:30:38;23.10;46.50
44517;DHT22;30223;17.182;-96.766;2023-02-03T07:33:05;23.00;46.60
44517;DHT22;30223;17.182;-96.766;2023-02-03T07:35:33;23.00;46.50
44517;DHT22;30223;17.182;-96.766;2023-02-03T07:38:00;23.00;46.50
44517;DHT22;30223;17.182;-96.766;2023-02-03T07:40:26;23.00;46.50
44517;DHT22;30223;17.182;-96.766;2023-02-03T07:42:55;23.00;46.60
44517;DHT22;30223;17.182;-96.766;2023-02-03T07:45:22;23.00;46.70
44517;DHT22;30223;17.182;-96.766;2023-02-03T07:47:50;23.00;46.60
44517;DHT22;30223;17.182;-96.766;2023-02-03T07:50:16;23.00;46.60
44517;DHT22;30223;17.182;-96.766;2023-02-03T07:52:43;23.00;46.70
44517;DHT22;30223;17.182;-96.766;2023-02-03T07:55:10;22.90;46.70
44517;DHT22;30223;17.182;-96.766;2023-02-03T07:57:36;22.90;46.70
44517;DHT22;30223;17.182;-96.766;2023-02-03T08:00:10;22.90;46.70
44517;DHT22;30223;17.182;-96.766;2023-02-03T08:02:37;22.90;46.80
44517;DHT22;30223;17.182;-96.766;2023-02-03T08:05:03;22.90;46.80
44517;DHT22;30223;17.182;-96.766;2023-02-03T08:07:29;22.90;46.80
44517;DHT22;30223;17.182;-96.766;2023-02-03T08:09:55;22.90;46.90
44517;DHT22;30223;17.182;-96.766;2023-02-03T08:12:21;22.80;46.90
44517;DHT22;30223;17.182;-96.766;2023-02-03T08:14:48;22.80;46.90
44517;DHT22;30223;17.182;-96.766;2023-02-03T08:17:14;22.90;46.90
44517;DHT22;30223;17.182;-96.766;2023-02-03T08:19:40;22.80;46.90
44517;DHT22;30223;17.182;-96.766;2023-02-03T08:22:06;22.80;46.90
44517;DHT22;30223;17.182;-96.766;2023-02-03T08:24:32;22.80;46.90
44517;DHT22;30223;17.182;-96.766;2023-02-03T08:26:59;22.80;46.90
44517;DHT22;30223;17.182;-96.766;2023-02-03T08:29:25;22.80;47.00
44517;DHT22;30223;17.182;-96.766;2023-02-03T08:31:51;22.80;47.00
44517;DHT22;30223;17.182;-96.766;2023-02-03T08:34:19;22.70;47.00
44517;DHT22;30223;17.182;-96.766;2023-02-03T08:36:45;22.70;47.00
44517;DHT22;30223;17.182;-96.766;2023-02-03T08:39:11;22.70;47.60
44517;DHT22;30223;17.182;-96.766;2023-02-03T08:41:38;22.70;47.10
44517;DHT22;30223;17.182;-96.766;2023-02-03T08:44:04;22.70;47.10
44517;DHT22;30223;17.182;-96.766;2023-02-03T08:46:30;22.70;47.10
44517;DHT22;30223;17.182;-96.766;2023-02-03T08:48:57;22.70;47.10
44517;DHT22;30223;17.182;-96.766;2023-02-03T08:51:25;22.60;47.10
44517;DHT22;30223;17.182;-96.766;2023-02-03T08:53:51;22.70;47.20
44517;DHT22;30223;17.182;-96.766;2023-02-03T08:56:17;22.60;47.10
44517;DHT22;30223;17.182;-96.766;2023-02-03T08:58:43;22.60;47.20
44517;DHT22;30223;17.182;-96.766;2023-02-03T09:01:11;22.60;47.20
44517;DHT22;30223;17.182;-96.766;2023-02-03T09:03:37;22.60;47.20
44517;DHT22;30223;17.182;-96.766;2023-02-03T09:06:04;22.60;47.30
44517;DHT22;30223;17.182;-96.766;2023-02-03T09:08:31;22.60;47.30
44517;DHT22;30223;17.182;-96.766;2023-02-03T09:10:57;22.50;47.20
44517;DHT22;30223;17.182;-96.766;2023-02-03T09:13:23;22.50;47.30
44517;DHT22;30223;17.182;-96.766;2023-02-03T09:15:49;22.50;47.30
44517;DHT22;30223;17.182;-96.766;2023-02-03T09:18:16;22.50;47.30
44517;DHT22;30223;17.182;-96.766;2023-02-03T09:20:42;22.50;47.30
44517;DHT22;30223;17.182;-96.766;2023-02-03T09:23:08;22.50;47.40
44517;DHT22;30223;17.182;-96.766;2023-02-03T09:25:34;22.50;47.40
44517;DHT22;30223;17.182;-96.766;2023-02-03T09:28:00;22.40;47.30
44517;DHT22;30223;17.182;-96.766;2023-02-03T09:30:27;22.40;47.40
44517;DHT22;30223;17.182;-96.766;2023-02-03T09:32:53;22.40;47.50
44517;DHT22;30223;17.182;-96.766;2023-02-03T09:35:21;22.40;47.50
44517;DHT22;30223;17.182;-96.766;2023-02-03T09:37:47;22.30;47.50
44517;DHT22;30223;17.182;-96.766;2023-02-03T09:40:18;22.30;47.60
44517;DHT22;30223;17.182;-96.766;2023-02-03T09:42:54;22.30;47.60
44517;DHT22;30223;17.182;-96.766;2023-02-03T09:47:48;22.30;47.60
44517;DHT22;30223;17.182;-96.766;2023-02-03T09:50:20;22.30;47.60
44517;DHT22;30223;17.182;-96.766;2023-02-03T09:52:47;22.30;47.60
44517;DHT22;30223;17.182;-96.766;2023-02-03T09:55:28;22.30;47.70
44517;DHT22;30223;17.182;-96.766;2023-02-03T10:03:33;22.20;47.80
44517;DHT22;30223;17.182;-96.766;2023-02-03T10:10:38;22.10;47.80
44517;DHT22;30223;17.182;-96.766;2023-02-03T10:18:16;22.10;47.90
44517;DHT22;30223;17.182;-96.766;2023-02-03T10:20:48;22.10;48.00
44517;DHT22;30223;17.182;-96.766;2023-02-03T10:23:21;22.10;48.00
44517;DHT22;30223;17.182;-96.766;2023-02-03T10:25:53;22.10;48.00
44517;DHT22;30223;17.182;-96.766;2023-02-03T10:28:28;22.10;48.60
44517;DHT22;30223;17.182;-96.766;2023-02-03T10:30:59;22.00;48.10
44517;DHT22;30223;17.182;-96.766;2023-02-03T10:33:29;22.00;48.10
44517;DHT22;30223;17.182;-96.766;2023-02-03T10:36:29;22.00;48.10
44517;DHT22;30223;17.182;-96.766;2023-02-03T10:41:17;22.00;48.20
44517;DHT22;30223;17.182;-96.766;2023-02-03T10:43:45;22.00;48.20
44517;DHT22;30223;17.182;-96.766;2023-02-03T10:46:18;21.90;48.20
44517;DHT22;30223;17.182;-96.766;2023-02-03T10:48:45;21.90;48.20
44517;DHT22;30223;17.182;-96.766;2023-02-03T10:51:17;21.90;48.20
44517;DHT22;30223;17.182;-96.766;2023-02-03T10:53:43;21.90;48.30
44517;DHT22;30223;17.182;-96.766;2023-02-03T10:56:15;21.90;48.30
44517;DHT22;30223;17.182;-96.766;2023-02-03T10:58:51;21.80;48.30
44517;DHT22;30223;17.182;-96.766;2023-02-03T11:01:18;21.90;48.40
44517;DHT22;30223;17.182;-96.766;2023-02-03T11:06:24;21.80;48.40
44517;DHT22;30223;17.182;-96.766;2023-02-03T11:08:50;21.80;48.40
44517;DHT22;30223;17.182;-96.766;2023-02-03T11:11:21;21.80;48.50
44517;DHT22;30223;17.182;-96.766;2023-02-03T11:13:53;21.80;48.50
44517;DHT22;30223;17.182;-96.766;2023-02-03T11:16:20;21.80;48.60
44517;DHT22;30223;17.182;-96.766;2023-02-03T11:21:26;21.70;48.50
44517;DHT22;30223;17.182;-96.766;2023-02-03T11:23:55;21.70;49.10
44517;DHT22;30223;17.182;-96.766;2023-02-03T11:26:26;21.70;48.60
44517;DHT22;30223;17.182;-96.766;2023-02-03T11:28:55;21.70;48.60
44517;DHT22;30223;17.182;-96.766;2023-02-03T11:31:23;21.70;48.60
44517;DHT22;30223;17.182;-96.766;2023-02-03T11:33:50;21.70;48.60
44517;DHT22;30223;17.182;-96.766;2023-02-03T11:36:17;21.70;48.70
44517;DHT22;30223;17.182;-96.766;2023-02-03T11:38:43;21.70;49.30
44517;DHT22;30223;17.182;-96.766;2023-02-03T11:41:15;21.60;48.70
44517;DHT22;30223;17.182;-96.766;2023-02-03T11:43:41;21.60;48.70
44517;DHT22;30223;17.182;-96.766;2023-02-03T11:46:08;21.60;48.70
44517;DHT22;30223;17.182;-96.766;2023-02-03T11:48:35;21.60;48.70
44517;DHT22;30223;17.182;-96.766;2023-02-03T11:53:53;21.60;48.80
44517;DHT22;30223;17.182;-96.766;2023-02-03T12:09:37;21.50;48.90
44517;DHT22;30223;17.182;-96.766;2023-02-03T12:12:13;21.50;48.90
44517;DHT22;30223;17.182;-96.766;2023-02-03T12:20:00;21.50;49.00
44517;DHT22;30223;17.182;-96.766;2023-02-03T12:22:35;21.40;49.00
44517;DHT22;30223;17.182;-96.766;2023-02-03T12:28:03;21.50;49.10
44517;DHT22;30223;17.182;-96.766;2023-02-03T12:31:06;21.40;49.10
44517;DHT22;30223;17.182;-96.766;2023-02-03T12:33:24;21.40;49.10
44517;DHT22;30223;17.182;-96.766;2023-02-03T12:35:57;21.40;49.10
44517;DHT22;30223;17.182;-96.766;2023-02-03T12:38:45;21.40;49.10
44517;DHT22;30223;17.182;-96.766;2023-02-03T12:41:20;21.40;49.20
44517;DHT22;30223;17.182;-96.766;2023-02-03T12:43:48;21.30;49.10
44517;DHT22;30223;17.182;-96.766;2023-02-03T12:46:29;21.30;49.20
44517;DHT22;30223;17.182;-96.766;2023-02-03T12:48:59;21.30;49.20
44517;DHT22;30223;17.182;-96.766;2023-02-03T12:53:58;21.30;49.20
44517;DHT22;30223;17.182;-96.766;2023-02-03T12:56:26;21.30;49.20
44517;DHT22;30223;17.182;-96.766;2023-02-03T12:58:56;21.30;49.30
44517;DHT22;30223;17.182;-96.766;2023-02-03T13:01:25;21.20;49.20
44517;DHT22;30223;17.182;-96.766;2023-02-03T13:09:19;21.20;49.40
44517;DHT22;30223;17.182;-96.766;2023-02-03T13:11:50;21.20;49.50
44517;DHT22;30223;17.182;-96.766;2023-02-03T13:16:52;21.20;49.50
44517;DHT22;30223;17.182;-96.766;2023-02-03T13:19:25;21.20;49.50
44517;DHT22;30223;17.182;-96.766;2023-02-03T13:21:52;21.20;49.50
44517;DHT22;30223;17.182;-96.766;2023-02-03T13:24:20;21.20;49.60
44517;DHT22;30223;17.182;-96.766;2023-02-03T13:27:25;21.20;49.50
44517;DHT22;30223;17.182;-96.766;2023-02-03T13:35:02;21.10;49.60
44517;DHT22;30223;17.182;-96.766;2023-02-03T13:37:42;21.10;49.60
44517;DHT22;30223;17.182;-96.766;2023-02-03T13:42:41;21.10;49.70
44517;DHT22;30223;17.182;-96.766;2023-02-03T13:47:39;21.10;49.70
44517;DHT22;30223;17.182;-96.766;2023-02-03T13:53:06;21.00;49.70
44517;DHT22;30223;17.182;-96.766;2023-02-03T13:55:36;21.10;49.80
44517;DHT22;30223;17.182;-96.766;2023-02-03T13:58:03;21.00;49.70
44517;DHT22;30223;17.182;-96.766;2023-02-03T14:03:15;21.00;49.80
44517;DHT22;30223;17.182;-96.766;2023-02-03T14:05:43;21.00;49.70
44517;DHT22;30223;17.182;-96.766;2023-02-03T14:13:39;21.00;49.80
44517;DHT22;30223;17.182;-96.766;2023-02-03T14:16:23;21.00;49.90
44517;DHT22;30223;17.182;-96.766;2023-02-03T14:18:49;20.90;49.80
44517;DHT22;30223;17.182;-96.766;2023-02-03T14:21:20;20.90;49.80
44517;DHT22;30223;17.182;-96.766;2023-02-03T14:24:05;20.90;49.90
44517;DHT22;30223;17.182;-96.766;2023-02-03T14:26:34;20.90;49.90
44517;DHT22;30223;17.182;-96.766;2023-02-03T14:29:03;20.90;49.90
44517;DHT22;30223;17.182;-96.766;2023-02-03T14:31:29;20.90;49.90
44517;DHT22;30223;17.182;-96.766;2023-02-03T14:34:00;20.90;49.90
44517;DHT22;30223;17.182;-96.766;2023-02-03T14:38:53;20.90;50.00
44517;DHT22;30223;17.182;-96.766;2023-02-03T14:41:22;20.90;50.00
44517;DHT22;30223;17.182;-96.766;2023-02-03T14:44:16;20.80;50.00
44517;DHT22;30223;17.182;-96.766;2023-02-03T14:46:55;20.80;50.00
44517;DHT22;30223;17.182;-96.766;2023-02-03T14:52:25;20.80;50.00
44517;DHT22;30223;17.182;-96.766;2023-02-03T15:00:00;20.80;50.10
44517;DHT22;30223;17.182;-96.766;2023-02-03T15:02:30;20.80;50.10
44517;DHT22;30223;17.182;-96.766;2023-02-03T15:07:44;20.80;50.10
44517;DHT22;30223;17.182;-96.766;2023-02-03T15:10:20;20.70;50.10
44517;DHT22;30223;17.182;-96.766;2023-02-03T15:12:47;20.80;50.20
44517;DHT22;30223;17.182;-96.766;2023-02-03T15:15:21;20.70;50.10
44517;DHT22;30223;17.182;-96.766;2023-02-03T15:17:48;20.80;50.20
44517;DHT22;30223;17.182;-96.766;2023-02-03T15:20:34;20.70;50.20
44517;DHT22;30223;17.182;-96.766;2023-02-03T15:23:19;20.80;50.20
44517;DHT22;30223;17.182;-96.766;2023-02-03T15:25:51;20.70;50.10
44517;DHT22;30223;17.182;-96.766;2023-02-03T15:28:19;20.70;50.10
44517;DHT22;30223;17.182;-96.766;2023-02-03T15:30:45;20.70;50.20
44517;DHT22;30223;17.182;-96.766;2023-02-03T15:33:13;20.70;50.20
44517;DHT22;30223;17.182;-96.766;2023-02-03T15:35:40;20.70;50.20
44517;DHT22;30223;17.182;-96.766;2023-02-03T15:38:12;20.70;50.20
44517;DHT22;30223;17.182;-96.766;2023-02-03T15:40:43;20.70;50.20
44517;DHT22;30223;17.182;-96.766;2023-02-03T15:46:51;20.80;50.20
44517;DHT22;30223;17.182;-96.766;2023-02-03T15:51:23;20.70;50.10
44517;DHT22;30223;17.182;-96.766;2023-02-03T15:53:52;20.70;50.20
44517;DHT22;30223;17.182;-96.766;2023-02-03T15:56:29;20.80;50.30
44517;DHT22;30223;17.182;-96.766;2023-02-03T15:59:00;20.70;50.20
44517;DHT22;30223;17.182;-96.766;2023-02-03T16:01:27;20.80;50.20
44517;DHT22;30223;17.182;-96.766;2023-02-03T16:03:54;20.80;50.20
44517;DHT22;30223;17.182;-96.766;2023-02-03T16:06:25;20.80;50.20
44517;DHT22;30223;17.182;-96.766;2023-02-03T16:08:55;20.80;50.20
44517;DHT22;30223;17.182;-96.766;2023-02-03T16:13:51;20.80;50.10
44517;DHT22;30223;17.182;-96.766;2023-02-03T16:16:21;20.80;50.20
44517;DHT22;30223;17.182;-96.766;2023-02-03T16:18:55;20.80;50.20
44517;DHT22;30223;17.182;-96.766;2023-02-03T16:21:29;20.90;50.20
44517;DHT22;30223;17.182;-96.766;2023-02-03T16:23:56;20.90;50.30
44517;DHT22;30223;17.182;-96.766;2023-02-03T16:26:23;20.90;50.30
44517;DHT22;30223;17.182;-96.766;2023-02-03T16:29:34;20.90;50.30
44517;DHT22;30223;17.182;-96.766;2023-02-03T16:31:58;20.80;50.20
44517;DHT22;30223;17.182;-96.766;2023-02-03T16:34:42;20.90;50.20
44517;DHT22;30223;17.182;-96.766;2023-02-03T16:37:31;20.90;50.30
44517;DHT22;30223;17.182;-96.766;2023-02-03T16:40:17;20.90;50.40
44517;DHT22;30223;17.182;-96.766;2023-02-03T16:43:02;21.00;50.40
44517;DHT22;30223;17.182;-96.766;2023-02-03T16:45:54;21.00;50.50
44517;DHT22;30223;17.182;-96.766;2023-02-03T16:48:38;21.00;50.50
44517;DHT22;30223;17.182;-96.766;2023-02-03T16:51:22;21.00;50.50
44517;DHT22;30223;17.182;-96.766;2023-02-03T16:53:49;21.00;50.40
44517;DHT22;30223;17.182;-96.766;2023-02-03T16:56:15;21.00;50.40
44517;DHT22;30223;17.182;-96.766;2023-02-03T16:58:43;21.10;50.40
44517;DHT22;30223;17.182;-96.766;2023-02-03T17:01:10;21.20;50.40
44517;DHT22;30223;17.182;-96.766;2023-02-03T17:03:37;21.10;50.30
44517;DHT22;30223;17.182;-96.766;2023-02-03T17:06:04;21.20;50.40
44517;DHT22;30223;17.182;-96.766;2023-02-03T17:08:30;21.20;50.40
44517;DHT22;30223;17.182;-96.766;2023-02-03T17:11:01;21.20;50.40
44517;DHT22;30223;17.182;-96.766;2023-02-03T17:13:27;21.20;50.40
44517;DHT22;30223;17.182;-96.766;2023-02-03T17:15:53;21.20;50.40
44517;DHT22;30223;17.182;-96.766;2023-02-03T17:18:20;21.30;50.50
44517;DHT22;30223;17.182;-96.766;2023-02-03T17:20:46;21.30;50.50
44517;DHT22;30223;17.182;-96.766;2023-02-03T17:23:12;21.30;50.40
44517;DHT22;30223;17.182;-96.766;2023-02-03T17:25:42;21.30;50.40
44517;DHT22;30223;17.182;-96.766;2023-02-03T17:28:09;21.30;50.40
44517;DHT22;30223;17.182;-96.766;2023-02-03T17:30:36;21.40;50.50
44517;DHT22;30223;17.182;-96.766;2023-02-03T17:33:03;21.30;50.40
44517;DHT22;30223;17.182;-96.766;2023-02-03T17:35:42;21.40;50.50